Dubai, UAE

3:23 PM GST on February 08, 2016 (GMT +0400)
Satwa | | Change Station
CLOSE
Current Station
Personal Weather Station
Location: Dubai, DUBAI
Elevation: 13 ft
Nearby Weather Stations

Elev 13 ft 25.22 °N, 55.27 °E | Updated 38 seconds ago

Clear
Clear
79.0 °F
Feels Like 78 °F
N
2.7
Wind Variable Wind from NW
Gusts 4.9 mph

Today
High -- | Low -- °F
--% Chance of Precip.
Yesterday
High -- | Low -- °F
Precip. -- in
Pressure 30.01 in
Visibility -9999.0 miles
Clouds
Heat Index 78 °F
Dew Point 31 °F
Humidity 17%
Rainfall 0.00 in
Snow Depth Not available.
6:58 AM 6:07 PM
Waning Crescent, 0% visible
METAR OMDB 081100Z 29010KT 250V350 CAVOK 26/M04 Q1016 NOSIG
Pressure 30.01 in
Visibility -9999.0 miles
Clouds
Heat Index 78 °F
Dew Point 31 °F
Humidity 17%
Rainfall 0.00 in
Snow Depth Not available.
6:58 AM 6:07 PM
Waning Crescent, 0% visible
METAR OMDB 081100Z 29010KT 250V350 CAVOK 26/M04 Q1016 NOSIG

10-Day Weather Forecast

No radar image for this location.
×

Almanac

Astronomy

Feb. 08, 2016 Rise Set
Actual Time
Civil Twilight
Nautical Twilight
Astronomical Twilight
Moon
Length of Visible Light
Length of Day
Tomorrow will be .
, % of the Moon is Illuminated

Today's Extremes

Country Highs Country Lows

Community

WunderPhotos

Upload Photos

1,891,420 photos uploaded!

WunderBlog® & News

Nearby

Air Quality

  Air Quality AQ Index Pollutant
Not available.

Snow Depth

Station Depth Elevation

Earthquake Activity

City Distance Mag. Time & Date
Minimum magnitude displayed is 2.5.

Coastal Water Temperatures

Place Temperature

Stations

Nearby Weather Stations

Station Location Temp. Windchill Dew Point Humidity Wind Precip. Elev Updated Type